Time;durP1;ratioP1;P1;durP2;ratioP2;P2;SDS_P1;SDS_P2;PMS_P1;PMS_P2;Temp;Humidity;BMP_temperature;BMP_pressure;BME280_temperature;BME280_humidity;BME280_pressure;Samples;Min_cycle;Max_cycle;Signal;HPM_P1;HPM_P2
2021/11/24 00:00:21;;;;;;;;;31.75;27.50;;;;;8.19;100.00;102335.97;5016964;28;45634;-75
2021/11/24 00:02:48;;;;;;;;;30.00;26.25;;;;;8.18;100.00;102334.19;5016019;28;46457;-76
2021/11/24 00:05:14;;;;;;;;;31.25;25.50;;;;;8.17;100.00;102335.88;5016330;28;45972;-76
2021/11/24 00:07:41;;;;;;;;;29.75;26.50;;;;;8.10;100.00;102317.22;5015681;28;45393;-75
2021/11/24 00:10:08;;;;;;;;;32.25;27.50;;;;;8.12;100.00;102323.38;5016059;28;45508;-77
2021/11/24 00:12:35;;;;;;;;;30.00;26.75;;;;;8.13;100.00;102326.06;5015167;28;46007;-77
2021/11/24 00:15:00;;;;;;;;;32.25;28.75;;;;;7.96;100.00;102292.91;5014954;28;45745;-76
2021/11/24 00:17:26;;;;;;;;;32.50;27.00;;;;;8.11;100.00;102312.16;5016395;28;45353;-77
2021/11/24 00:19:55;;;;;;;;;30.75;26.50;;;;;8.08;100.00;102305.84;5015811;28;45590;-77
2021/11/24 00:22:21;;;;;;;;;35.75;30.25;;;;;7.92;100.00;102281.44;5016188;28;46217;-78
2021/11/24 00:24:46;;;;;;;;;28.00;27.00;;;;;8.05;100.00;102304.81;5015436;28;45507;-75
2021/11/24 00:27:12;;;;;;;;;35.50;28.00;;;;;7.98;100.00;102289.66;5015749;28;45268;-76
2021/11/24 00:29:38;;;;;;;;;38.75;30.25;;;;;8.00;100.00;102305.25;5025149;28;45248;-75
2021/11/24 00:32:04;;;;;;;;;32.25;26.00;;;;;8.06;100.00;102309.22;5030782;28;45877;-75
2021/11/24 00:34:29;;;;;;;;;29.50;25.50;;;;;8.05;100.00;102309.09;5015847;28;45486;-76
2021/11/24 00:36:55;;;;;;;;;30.50;25.75;;;;;8.03;100.00;102298.69;5016778;28;45261;-75
2021/11/24 00:39:20;;;;;;;;;32.25;27.25;;;;;8.03;100.00;102302.91;5018176;28;45574;-76
2021/11/24 00:41:46;;;;;;;;;28.25;23.50;;;;;7.99;100.00;102299.19;5015640;28;45955;-76
2021/11/24 00:44:12;;;;;;;;;29.00;26.00;;;;;8.03;100.00;102301.25;5015248;28;45518;-76
2021/11/24 00:46:39;;;;;;;;;28.25;24.25;;;;;8.01;100.00;102297.66;5015418;28;45340;-76
2021/11/24 00:49:05;;;;;;;;;27.75;25.25;;;;;8.02;100.00;102296.88;5015470;28;45347;-76
2021/11/24 00:51:31;;;;;;;;;27.50;24.75;;;;;7.99;100.00;102291.47;5015329;28;46159;-75
2021/11/24 00:53:56;;;;;;;;;27.00;26.25;;;;;7.91;100.00;102274.50;5015375;28;45348;-75
2021/11/24 00:56:22;;;;;;;;;29.25;24.25;;;;;8.04;100.00;102291.81;5015241;28;45266;-76
2021/11/24 00:58:48;;;;;;;;;23.50;23.25;;;;;8.05;100.00;102285.88;5015348;28;45582;-75
2021/11/24 01:01:13;;;;;;;;;26.50;22.75;;;;;8.03;100.00;102285.78;5015196;28;45563;-75
2021/11/24 01:03:39;;;;;;;;;24.00;21.00;;;;;8.03;100.00;102288.34;5014537;28;45178;-75
2021/11/24 01:06:05;;;;;;;;;24.00;19.75;;;;;8.04;100.00;102282.38;5015574;28;45304;-75
2021/11/24 01:08:30;;;;;;;;;27.00;21.50;;;;;8.02;100.00;102270.16;5016642;28;45518;-75
2021/11/24 01:10:57;;;;;;;;;23.00;20.00;;;;;8.03;100.00;102269.38;5017990;28;45443;-75
2021/11/24 01:13:23;;;;;;;;;25.00;20.75;;;;;8.00;100.00;102266.56;5018307;28;45905;-76
2021/11/24 01:15:49;;;;;;;;;23.50;20.00;;;;;7.99;100.00;102268.25;5018723;28;45345;-76
2021/11/24 01:18:14;;;;;;;;;28.75;24.75;;;;;7.98;100.00;102260.41;5019421;28;45595;-76
2021/11/24 01:20:40;;;;;;;;;25.00;20.75;;;;;7.97;100.00;102267.22;5019239;28;45462;-75
2021/11/24 01:23:06;;;;;;;;;24.00;21.75;;;;;8.00;100.00;102262.31;5018752;28;45389;-77
2021/11/24 01:25:32;;;;;;;;;28.25;23.00;;;;;7.96;100.00;102255.09;5000069;28;45277;-76
2021/11/24 01:27:58;;;;;;;;;30.50;24.00;;;;;7.98;100.00;102260.41;5019329;28;45381;-76
2021/11/24 01:30:24;;;;;;;;;22.25;20.25;;;;;7.88;100.00;102248.44;5018504;28;46229;-76
2021/11/24 01:32:50;;;;;;;;;32.00;24.00;;;;;7.95;100.00;102258.47;5018067;28;45948;-75
2021/11/24 01:35:16;;;;;;;;;22.75;17.75;;;;;7.93;100.00;102254.88;5018366;28;45201;-76
2021/11/24 01:37:42;;;;;;;;;30.50;27.25;;;;;7.96;100.00;102257.69;5000869;28;45368;-75
2021/11/24 01:40:09;;;;;;;;;27.00;24.50;;;;;7.92;100.00;102247.00;5018074;28;45520;-76
2021/11/24 01:42:34;;;;;;;;;26.00;22.50;;;;;7.93;100.00;102247.16;5018019;28;45288;-76
2021/11/24 01:45:01;;;;;;;;;29.75;24.75;;;;;7.96;100.00;102238.75;5000255;28;45380;-76
2021/11/24 01:47:27;;;;;;;;;27.50;25.00;;;;;7.99;100.00;102250.19;5018612;28;45603;-76
2021/11/24 01:49:53;;;;;;;;;27.75;23.00;;;;;7.98;100.00;102250.97;5018044;28;45292;-76
2021/11/24 01:52:18;;;;;;;;;23.50;22.50;;;;;7.97;100.00;102253.44;5018578;28;45828;-76
2021/11/24 01:54:44;;;;;;;;;32.00;24.50;;;;;7.96;100.00;102243.91;5017786;28;45444;-76
2021/11/24 01:57:11;;;;;;;;;31.25;24.50;;;;;7.87;100.00;102220.88;5018731;28;45247;-76
2021/11/24 01:59:37;;;;;;;;;28.00;22.50;;;;;7.97;100.00;102236.28;5018178;28;45582;-76
2021/11/24 02:02:03;;;;;;;;;27.25;22.50;;;;;7.87;100.00;102207.97;5017886;28;45301;-76
2021/11/24 02:04:28;;;;;;;;;31.75;22.75;;;;;7.96;100.00;102225.84;5018263;28;45473;-76
2021/11/24 02:06:54;;;;;;;;;28.00;26.50;;;;;7.96;100.00;102233.59;5018275;28;45380;-75
2021/11/24 02:09:21;;;;;;;;;25.75;23.00;;;;;7.85;100.00;102215.59;5017475;28;45325;-76
2021/11/24 02:11:48;;;;;;;;;25.75;21.00;;;;;7.93;100.00;102225.59;5016804;28;45523;-76
2021/11/24 02:14:16;;;;;;;;;23.50;21.75;;;;;7.93;100.00;102225.59;5018021;28;45864;-76
2021/11/24 02:16:48;;;;;;;;;25.25;21.50;;;;;7.93;100.00;102229.09;5017398;28;45323;-75
2021/11/24 02:19:14;;;;;;;;;26.50;22.75;;;;;7.89;100.00;102214.16;5010062;28;45237;-76
2021/11/24 02:21:48;;;;;;;;;25.50;22.50;;;;;7.93;100.00;102218.78;5016885;28;45811;-75
2021/11/24 02:24:14;;;;;;;;;24.75;20.25;;;;;7.86;100.00;102209.66;4983216;28;45412;-75
2021/11/24 02:26:40;;;;;;;;;25.75;22.50;;;;;7.85;100.00;102215.59;4998531;28;45324;-75
2021/11/24 02:29:06;;;;;;;;;30.75;25.50;;;;;7.80;100.00;102203.13;5017680;28;45927;-76
2021/11/24 02:31:32;;;;;;;;;35.50;30.00;;;;;7.89;100.00;102216.72;5017545;28;45253;-75
2021/11/24 02:33:57;;;;;;;;;28.00;21.00;;;;;7.83;100.00;102200.78;5017713;28;45443;-75
2021/11/24 02:36:24;;;;;;;;;35.00;27.00;;;;;7.86;100.00;102201.00;5017637;28;45366;-75
2021/11/24 02:38:50;;;;;;;;;27.50;22.25;;;;;7.87;100.00;102202.81;5016969;28;45384;-77
2021/11/24 02:41:17;;;;;;;;;21.25;18.00;;;;;7.87;100.00;102198.56;5018164;28;45416;-76
2021/11/24 02:43:43;;;;;;;;;33.00;26.50;;;;;7.89;100.00;102209.00;5017162;28;45329;-76
2021/11/24 02:46:09;;;;;;;;;29.75;28.00;;;;;7.78;100.00;102182.34;5017649;28;45482;-77
2021/11/24 02:48:36;;;;;;;;;29.75;23.00;;;;;7.86;100.00;102196.78;5017228;28;45528;-76
2021/11/24 02:51:02;;;;;;;;;29.75;26.75;;;;;7.87;100.00;102192.50;5017211;28;45322;-75
2021/11/24 02:53:33;;;;;;;;;31.25;28.00;;;;;7.72;100.00;102161.25;5017759;28;45294;-77
2021/11/24 02:55:59;;;;;;;;;26.25;24.50;;;;;7.88;100.00;102191.72;5017282;28;45347;-75
2021/11/24 02:58:25;;;;;;;;;23.50;21.00;;;;;7.80;100.00;102177.34;5017673;28;45402;-75
2021/11/24 03:00:53;;;;;;;;;31.50;26.75;;;;;7.82;100.00;102174.09;5017096;28;45348;-77
2021/11/24 03:03:19;;;;;;;;;31.50;23.50;;;;;7.79;100.00;102166.09;5017471;28;45487;-76
2021/11/24 03:05:45;;;;;;;;;31.00;30.00;;;;;7.82;100.00;102176.66;5017072;28;45373;-76
2021/11/24 03:08:11;;;;;;;;;24.00;20.00;;;;;7.83;100.00;102175.91;5016745;28;45480;-77
2021/11/24 03:10:37;;;;;;;;;34.00;25.75;;;;;7.80;100.00;102174.75;5016461;28;45511;-77
2021/11/24 03:13:03;;;;;;;;;24.50;23.25;;;;;7.75;100.00;102172.72;5016634;28;45690;-76
2021/11/24 03:15:29;;;;;;;;;28.00;24.00;;;;;7.73;100.00;102168.22;5016953;28;45413;-76
2021/11/24 03:17:55;;;;;;;;;25.25;23.00;;;;;7.70;100.00;102160.25;5018680;28;45222;-76
2021/11/24 03:20:25;;;;;;;;;31.50;27.25;;;;;7.71;100.00;102160.38;5018591;28;45313;-76
2021/11/24 03:22:51;;;;;;;;;32.25;26.50;;;;;7.56;100.00;102130.81;5016931;28;45486;-76
2021/11/24 03:25:16;;;;;;;;;26.25;24.50;;;;;7.65;100.00;102148.69;5017284;28;45334;-75
2021/11/24 03:27:43;;;;;;;;;26.00;23.25;;;;;7.67;100.00;102148.00;5015708;28;45517;-76
2021/11/24 03:30:21;;;;;;;;;25.25;23.25;;;;;7.65;100.00;102138.38;5016425;28;45942;-77
2021/11/24 03:32:48;;;;;;;;;28.00;21.75;;;;;7.57;100.00;102135.19;5016606;28;45380;-76
2021/11/24 03:35:15;;;;;;;;;33.25;24.75;;;;;7.58;100.00;102147.31;5017248;28;45622;-76
2021/11/24 03:37:41;;;;;;;;;25.25;23.25;;;;;7.55;100.00;102142.81;5016428;28;45421;-77
2021/11/24 03:40:09;;;;;;;;;28.75;25.50;;;;;7.46;100.00;102134.34;5015929;28;45483;-77
2021/11/24 03:42:36;;;;;;;;;23.75;22.50;;;;;7.52;100.00;102146.81;5016004;28;45233;-78
2021/11/24 03:45:03;;;;;;;;;27.25;23.25;;;;;7.56;100.00;102154.88;5016975;28;45619;-79
2021/11/24 03:47:29;;;;;;;;;27.00;21.25;;;;;7.56;100.00;102154.00;5016284;28;45353;-77
2021/11/24 03:49:54;;;;;;;;;24.75;24.75;;;;;7.55;100.00;102145.38;5016672;28;45335;-76
2021/11/24 03:52:20;;;;;;;;;26.25;22.25;;;;;7.53;100.00;102144.38;5016472;28;45300;-76
2021/11/24 03:54:46;;;;;;;;;29.00;24.50;;;;;7.48;100.00;102135.34;5030813;28;45359;-75
2021/11/24 03:57:12;;;;;;;;;30.75;25.00;;;;;7.49;100.00;102133.69;5016818;28;45395;-76
2021/11/24 03:59:37;;;;;;;;;33.75;28.50;;;;;7.50;100.00;102138.06;5017230;28;45578;-76
2021/11/24 04:02:03;;;;;;;;;30.25;26.50;;;;;7.49;100.00;102125.97;5016146;28;45316;-77
2021/11/24 04:04:29;;;;;;;;;29.00;26.25;;;;;7.52;100.00;102132.25;5017048;28;45549;-76
2021/11/24 04:06:54;;;;;;;;;25.75;22.25;;;;;7.49;100.00;102121.69;5016240;28;45258;-76
2021/11/24 04:09:20;;;;;;;;;28.75;25.50;;;;;7.43;100.00;102111.81;5015601;28;45271;-76
2021/11/24 04:11:46;;;;;;;;;32.00;25.50;;;;;7.43;100.00;102118.66;5014920;28;45523;-76
2021/11/24 04:14:11;;;;;;;;;28.50;22.00;;;;;7.42;100.00;102120.31;5015816;28;45419;-77
2021/11/24 04:16:37;;;;;;;;;26.25;24.00;;;;;7.39;100.00;102125.25;5015935;28;45865;-76
2021/11/24 04:19:03;;;;;;;;;35.25;27.50;;;;;7.34;100.00;102110.22;5015537;28;45561;-76
2021/11/24 04:21:32;;;;;;;;;27.50;25.50;;;;;7.31;100.00;102117.69;5015430;28;45390;-77
2021/11/24 04:23:59;;;;;;;;;30.00;26.25;;;;;7.22;100.00;102097.22;5016241;28;45423;-76
2021/11/24 04:26:25;;;;;;;;;22.50;20.50;;;;;7.28;100.00;102097.75;5016239;28;45273;-76
2021/11/24 04:28:50;;;;;;;;;24.25;19.25;;;;;7.33;100.00;102111.88;5015926;28;45376;-76
2021/11/24 04:31:16;;;;;;;;;23.75;21.25;;;;;7.36;100.00;102099.22;5015881;28;45186;-77
2021/11/24 04:33:42;;;;;;;;;27.25;23.75;;;;;7.32;100.00;102094.59;5016120;28;45233;-77
2021/11/24 04:36:08;;;;;;;;;24.25;21.75;;;;;7.33;100.00;102104.13;5015522;28;46061;-75
2021/11/24 04:38:34;;;;;;;;;27.75;24.50;;;;;7.28;100.00;102090.91;5014878;28;45463;-76
2021/11/24 04:41:01;;;;;;;;;20.75;17.75;;;;;7.31;100.00;102092.81;5016483;28;45427;-75
2021/11/24 04:43:38;;;;;;;;;27.25;17.50;;;;;7.30;100.00;102090.13;5014954;28;45500;-75
2021/11/24 04:46:04;;;;;;;;;33.75;23.75;;;;;7.31;100.00;102084.19;5034344;28;45651;-75
2021/11/24 04:48:29;;;;;;;;;25.50;23.00;;;;;7.21;100.00;102070.59;5029770;28;45430;-76
2021/11/24 04:50:55;;;;;;;;;26.25;21.00;;;;;7.27;100.00;102086.50;4998228;28;45241;-76
2021/11/24 04:53:21;;;;;;;;;28.00;22.75;;;;;7.23;100.00;102079.34;5015172;28;45605;-76
2021/11/24 04:55:46;;;;;;;;;29.50;22.50;;;;;7.24;100.00;102080.22;5014526;28;45654;-76
2021/11/24 04:58:12;;;;;;;;;26.25;22.25;;;;;7.21;100.00;102092.84;5015665;28;45469;-76
2021/11/24 05:00:38;;;;;;;;;29.75;23.75;;;;;7.20;100.00;102094.56;5015057;28;45354;-77
2021/11/24 05:03:04;;;;;;;;;26.75;19.50;;;;;7.18;100.00;102080.66;5015556;28;45483;-75
2021/11/24 05:05:30;;;;;;;;;28.00;22.00;;;;;7.19;100.00;102074.72;5015049;28;46227;-76
2021/11/24 05:07:57;;;;;;;;;31.00;25.75;;;;;7.18;100.00;102072.03;5015309;28;46650;-75
2021/11/24 05:10:23;;;;;;;;;24.50;23.50;;;;;7.19;100.00;102074.72;5014536;28;45476;-76
2021/11/24 05:12:49;;;;;;;;;21.25;17.25;;;;;7.13;100.00;102064.84;5015211;28;45222;-75
2021/11/24 05:15:23;;;;;;;;;22.75;18.75;;;;;7.23;100.00;102079.34;5015236;28;45201;-80
2021/11/24 05:17:53;;;;;;;;;28.75;22.75;;;;;7.23;100.00;102081.91;5018556;28;45780;-77
2021/11/24 05:20:23;;;;;;;;;26.75;17.50;;;;;7.19;100.00;102069.56;5017250;28;45340;-78
2021/11/24 05:22:49;;;;;;;;;24.00;21.75;;;;;7.16;100.00;102069.31;5014867;28;46035;-78
2021/11/24 05:25:15;;;;;;;;;28.25;23.75;;;;;7.12;100.00;102057.00;5014664;28;46158;-78
2021/11/24 05:27:41;;;;;;;;;25.25;24.75;;;;;7.19;100.00;102072.13;5015009;28;45285;-78
2021/11/24 05:30:09;;;;;;;;;26.25;21.75;;;;;7.23;100.00;102075.84;5015385;28;45316;-78
2021/11/24 05:32:35;;;;;;;;;17.25;15.00;;;;;7.18;100.00;102067.75;5015219;28;45543;-77
2021/11/24 05:35:01;;;;;;;;;30.25;20.25;;;;;7.18;100.00;102072.91;5015069;28;45431;-77
2021/11/24 05:37:26;;;;;;;;;27.25;23.75;;;;;7.10;100.00;102055.97;5015153;28;45479;-78
2021/11/24 05:39:52;;;;;;;;;25.50;21.50;;;;;7.07;100.00;102059.19;5014527;28;45437;-78
2021/11/24 05:42:18;;;;;;;;;20.25;18.75;;;;;7.09;100.00;102060.19;5014663;28;45534;-77
2021/11/24 05:44:47;;;;;;;;;27.25;21.75;;;;;7.05;100.00;102055.59;5014889;28;45830;-78
2021/11/24 05:47:49;;;;;;;;;29.75;22.75;;;;;7.04;100.00;102047.75;5017171;28;45983;-80
2021/11/24 05:49:59;;;;;;;;;25.00;21.75;;;;;7.11;100.00;102068.97;5035119;28;45402;-79
2021/11/24 05:52:24;;;;;;;;;26.50;20.50;;;;;7.08;100.00;102063.56;5035666;28;45334;-79
2021/11/24 05:54:50;;;;;;;;;25.75;22.00;;;;;7.09;100.00;102067.03;5025164;28;46250;-82
2021/11/24 05:57:16;;;;;;;;;28.75;21.75;;;;;7.06;100.00;102053.91;5020783;28;45680;-80
2021/11/24 05:59:42;;;;;;;;;30.00;20.00;;;;;7.07;100.00;102060.88;5022626;28;46145;-81
2021/11/24 06:02:09;;;;;;;;;25.75;21.75;;;;;7.02;100.00;102049.31;5013987;28;45551;-77
2021/11/24 06:04:34;;;;;;;;;29.25;21.75;;;;;7.05;100.00;102050.47;4998138;28;46173;-78
2021/11/24 06:07:00;;;;;;;;;30.50;24.25;;;;;6.94;100.00;102033.25;4998365;28;45365;-78
2021/11/24 06:09:26;;;;;;;;;27.00;23.25;;;;;7.02;100.00;102047.63;4998759;28;45429;-79
2021/11/24 06:11:52;;;;;;;;;27.50;22.25;;;;;7.02;100.00;102050.19;4998363;28;45240;-78
2021/11/24 06:14:17;;;;;;;;;29.75;22.75;;;;;6.99;100.00;102051.66;4998269;28;46091;-77
2021/11/24 06:16:43;;;;;;;;;27.00;24.00;;;;;6.97;100.00;102046.34;5011471;28;45441;-76
2021/11/24 06:19:08;;;;;;;;;27.00;22.25;;;;;6.95;100.00;102048.81;5018380;28;45431;-75
2021/11/24 06:21:34;;;;;;;;;27.75;21.75;;;;;6.96;100.00;102055.75;5018352;28;45289;-83
2021/11/24 06:24:00;;;;;;;;;31.00;28.75;;;;;6.87;100.00;102033.53;5017587;28;46170;-82
2021/11/24 06:26:25;;;;;;;;;29.25;21.00;;;;;6.94;100.00;102046.13;5019332;28;45443;-86
2021/11/24 06:28:51;;;;;;;;;25.50;21.00;;;;;6.95;100.00;102041.09;5024520;28;45259;-79
2021/11/24 06:31:17;;;;;;;;;25.00;22.25;;;;;6.91;100.00;102038.16;5036798;28;45336;-85
2021/11/24 06:33:43;;;;;;;;;23.75;21.75;;;;;6.90;100.00;102049.22;5006048;28;47954;-78
2021/11/24 06:36:09;;;;;;;;;28.00;22.75;;;;;6.90;100.00;102047.56;5002092;28;45983;-81
2021/11/24 06:38:35;;;;;;;;;26.75;23.00;;;;;6.92;100.00;102045.09;5018774;28;45526;-76
2021/11/24 06:41:01;;;;;;;;;28.50;22.75;;;;;6.91;100.00;102039.03;5017765;28;45309;-78
2021/11/24 06:43:26;;;;;;;;;28.75;21.25;;;;;6.82;100.00;102026.34;5017842;28;45264;-76
2021/11/24 06:45:52;;;;;;;;;21.25;20.25;;;;;6.88;100.00;102035.31;4999207;28;45450;-76
2021/11/24 06:48:18;;;;;;;;;27.25;21.25;;;;;6.89;100.00;102037.13;5016681;28;45467;-76
2021/11/24 06:50:43;;;;;;;;;21.00;14.75;;;;;6.88;100.00;102043.06;5016561;28;45433;-76
2021/11/24 06:53:09;;;;;;;;;24.25;20.25;;;;;6.89;100.00;102043.19;5016444;28;45479;-76
2021/11/24 06:55:35;;;;;;;;;24.50;20.75;;;;;6.76;100.00;102020.69;4998066;28;45594;-76
2021/11/24 06:58:01;;;;;;;;;20.00;17.25;;;;;6.81;100.00;102024.56;4996799;28;45536;-76
2021/11/24 07:00:27;;;;;;;;;27.50;21.25;;;;;6.88;100.00;102035.31;5014574;28;45522;-77
2021/11/24 07:02:53;;;;;;;;;34.00;23.00;;;;;6.91;100.00;102038.16;5016664;28;46048;-76
2021/11/24 07:05:19;;;;;;;;;26.00;20.25;;;;;6.89;100.00;102031.97;5015701;28;45959;-76
2021/11/24 07:07:44;;;;;;;;;26.00;19.00;;;;;6.91;100.00;102025.28;5016737;28;45252;-76
2021/11/24 07:10:10;;;;;;;;;24.25;19.50;;;;;6.91;100.00;102023.59;4999599;28;45653;-78
2021/11/24 07:12:36;;;;;;;;;28.75;23.00;;;;;6.90;100.00;102020.91;5016751;28;45585;-76
2021/11/24 07:15:03;;;;;;;;;22.25;16.00;;;;;6.85;100.00;102010.25;5016931;28;45369;-76
2021/11/24 07:17:29;;;;;;;;;27.25;22.25;;;;;6.89;100.00;102020.03;5016491;28;45471;-76
2021/11/24 07:19:57;;;;;;;;;25.50;16.50;;;;;6.77;100.00;102001.91;5000021;28;45388;-76
2021/11/24 07:22:22;;;;;;;;;26.50;20.75;;;;;6.80;100.00;102006.44;5016703;28;45435;-76
2021/11/24 07:24:48;;;;;;;;;27.00;22.00;;;;;6.87;100.00;102018.06;5016831;28;45783;-76
2021/11/24 07:27:14;;;;;;;;;25.25;20.25;;;;;6.84;100.00;102017.84;5017187;28;45451;-76
2021/11/24 07:29:39;;;;;;;;;22.50;18.50;;;;;6.86;100.00;102014.63;5017015;28;45356;-76
2021/11/24 07:32:06;;;;;;;;;24.50;17.75;;;;;6.79;100.00;102013.22;5016739;28;45380;-75
2021/11/24 07:34:32;;;;;;;;;24.25;17.00;;;;;6.80;100.00;102011.56;5015709;28;45467;-76
2021/11/24 07:36:58;;;;;;;;;17.50;17.00;;;;;6.76;100.00;102018.13;5016800;28;45466;-75
2021/11/24 07:39:23;;;;;;;;;22.00;17.50;;;;;6.79;100.00;102014.94;5016342;28;45708;-73
2021/11/24 07:41:49;;;;;;;;;21.00;16.50;;;;;6.80;100.00;102022.75;5015952;28;46363;-80
2021/11/24 07:44:15;;;;;;;;;29.00;20.25;;;;;6.72;100.00;101998.09;5020771;28;45363;-76
2021/11/24 07:46:41;;;;;;;;;27.75;22.00;;;;;6.79;100.00;102022.66;5024351;28;45419;-81
2021/11/24 07:49:06;;;;;;;;;27.25;21.00;;;;;6.80;100.00;102016.72;5025487;28;45649;-82
2021/11/24 07:51:32;;;;;;;;;20.75;17.50;;;;;6.79;100.00;102002.94;5016356;28;45355;-78
2021/11/24 07:53:58;;;;;;;;;24.25;21.00;;;;;6.80;100.00;101990.97;5016371;28;45458;-80
2021/11/24 07:56:24;;;;;;;;;25.75;20.25;;;;;6.87;100.00;102016.41;5017508;28;45748;-78
2021/11/24 07:58:50;;;;;;;;;21.00;19.25;;;;;6.88;100.00;102010.50;5023884;28;45491;-75
2021/11/24 08:01:15;;;;;;;;;21.00;19.00;;;;;6.90;100.00;102003.81;5017706;28;45988;-80
2021/11/24 08:03:42;;;;;;;;;20.00;17.50;;;;;6.93;100.00;102004.03;5016153;28;45420;-81
2021/11/24 08:06:08;;;;;;;;;22.50;21.00;;;;;6.96;100.00;102012.00;5016492;28;45381;-77
2021/11/24 08:08:35;;;;;;;;;20.25;18.50;;;;;7.02;100.00;102008.13;5016678;28;45483;-75
2021/11/24 08:11:00;;;;;;;;;22.25;18.75;;;;;7.03;100.00;102009.88;5019547;28;45695;-79
2021/11/24 08:13:27;;;;;;;;;20.25;18.00;;;;;6.97;100.00;101994.84;5016861;28;45367;-73
2021/11/24 08:15:53;;;;;;;;;17.50;12.75;;;;;7.02;100.00;102013.28;4998116;28;45367;-79
2021/11/24 08:18:18;;;;;;;;;28.25;23.75;;;;;7.05;100.00;102001.53;4996564;28;45662;-80
2021/11/24 08:20:44;;;;;;;;;23.00;18.00;;;;;7.09;100.00;102013.84;5015857;28;45709;-80
2021/11/24 08:23:10;;;;;;;;;24.25;18.25;;;;;7.10;100.00;102012.19;5015676;28;45720;-78
2021/11/24 08:25:36;;;;;;;;;15.75;14.25;;;;;7.06;100.00;101987.88;5016107;28;45304;-78
2021/11/24 08:28:02;;;;;;;;;18.25;15.00;;;;;7.18;100.00;102011.09;5016485;28;45474;-78
2021/11/24 08:30:28;;;;;;;;;22.00;15.75;;;;;7.20;100.00;102018.94;5016021;28;45350;-83
2021/11/24 08:32:54;;;;;;;;;20.50;16.00;;;;;7.17;100.00;102004.16;5016964;28;45430;-84
2021/11/24 08:35:21;;;;;;;;;23.25;18.50;;;;;7.26;100.00;102001.41;5035177;28;45432;-79
2021/11/24 08:37:47;;;;;;;;;16.75;14.75;;;;;7.22;100.00;101983.91;5019636;28;45365;-79
2021/11/24 08:40:14;;;;;;;;;17.00;14.00;;;;;7.20;100.00;101977.72;5015241;28;45381;-78
2021/11/24 08:42:40;;;;;;;;;23.00;18.00;;;;;7.23;100.00;101984.03;5015678;28;45257;-79
2021/11/24 08:45:08;;;;;;;;;15.25;14.75;;;;;7.27;100.00;101983.47;5015541;28;45340;-77
2021/11/24 08:47:34;;;;;;;;;21.00;17.00;;;;;7.27;100.00;101978.31;5016101;28;45491;-76
2021/11/24 08:50:00;;;;;;;;;19.75;16.50;;;;;7.22;100.00;101958.13;5017193;28;45505;-77
2021/11/24 08:52:26;;;;;;;;;26.25;25.00;;;;;7.35;100.00;101984.06;5016345;28;45391;-79
2021/11/24 08:54:52;;;;;;;;;24.00;19.50;;;;;7.37;100.00;101987.66;5015943;28;45270;-79
2021/11/24 08:57:18;;;;;;;;;23.00;18.25;;;;;7.40;100.00;101985.31;5016208;28;45566;-81
2021/11/24 08:59:43;;;;;;;;;19.25;18.50;;;;;7.37;100.00;101976.44;5014859;28;45910;-79
2021/11/24 09:02:10;;;;;;;;;23.75;20.25;;;;;7.45;100.00;101985.66;5014720;28;45544;-79
2021/11/24 09:04:36;;;;;;;;;24.50;19.75;;;;;7.48;100.00;101982.44;5015746;28;45360;-84
2021/11/24 09:07:02;;;;;;;;;26.75;19.25;;;;;7.38;100.00;101955.97;4998545;28;45328;-78
2021/11/24 09:09:28;;;;;;;;;20.00;16.75;;;;;7.46;100.00;101965.97;5015703;28;45209;-77
2021/11/24 09:11:53;;;;;;;;;21.75;16.50;;;;;7.53;100.00;101963.97;5015707;28;45452;-76
2021/11/24 09:14:19;;;;;;;;;19.75;17.75;;;;;7.57;100.00;101957.38;5016808;28;45318;-75
2021/11/24 09:16:46;;;;;;;;;32.50;26.50;;;;;7.63;100.00;101955.22;5018485;28;45530;-76
2021/11/24 09:19:11;;;;;;;;;15.50;14.75;;;;;7.67;100.00;101957.28;5015964;28;45391;-79
2021/11/24 09:21:37;;;;;;;;;28.50;21.25;;;;;7.74;100.00;101958.63;5015375;28;45287;-76
2021/11/24 09:24:11;;;;;;;;;26.50;24.25;;;;;7.73;100.00;101936.22;5015553;28;45372;-77
2021/11/24 09:26:56;;;;;;;;;16.00;13.50;;;;;7.79;100.00;101944.38;5009797;28;45413;-73
2021/11/24 09:29:22;;;;;;;;;19.00;15.75;;;;;7.82;100.00;101942.03;5015268;28;46141;-76
2021/11/24 09:31:48;;;;;;;;;22.25;18.50;;;;;7.84;100.00;101947.31;5016185;28;45473;-76
2021/11/24 09:34:13;;;;;;;;;17.50;15.75;;;;;7.83;100.00;101948.13;5018182;28;45424;-71
2021/11/24 09:36:41;;;;;;;;;22.00;18.50;;;;;7.86;100.00;101946.66;5017401;28;45367;-71
2021/11/24 09:39:07;;;;;;;;;22.25;20.50;;;;;7.83;100.00;101937.81;5018223;28;45530;-71
2021/11/24 09:41:40;;;;;;;;;23.50;17.75;;;;;7.81;100.00;101929.94;5018363;28;45438;-77
2021/11/24 09:44:07;;;;;;;;;19.75;16.25;;;;;7.85;100.00;101942.28;5018409;28;45264;-72
2021/11/24 09:46:33;;;;;;;;;21.00;19.50;;;;;7.88;100.00;101941.59;5018530;28;45339;-77
2021/11/24 09:49:03;;;;;;;;;21.25;19.25;;;;;7.93;100.00;101941.94;5000475;28;47733;-74
2021/11/24 09:51:31;;;;;;;;;19.25;15.50;;;;;7.97;100.00;101938.81;5017069;28;45749;-73
2021/11/24 09:54:00;;;;;;;;;21.00;16.00;;;;;7.92;100.00;101927.25;4999896;28;45568;-70
2021/11/24 09:56:26;;;;;;;;;20.50;14.75;;;;;7.97;100.00;101936.25;5020677;28;45657;-74
2021/11/24 09:58:52;;;;;;;;;21.25;18.25;;;;;8.00;100.00;101931.28;5019319;28;46039;-75
2021/11/24 10:01:17;;;;;;;;;21.25;15.75;;;;;8.05;100.00;101932.53;5016977;28;45505;-72
2021/11/24 10:03:43;;;;;;;;;20.25;14.75;;;;;8.06;100.00;101935.22;4999530;28;45588;-77
2021/11/24 10:06:09;;;;;;;;;24.00;21.00;;;;;8.04;100.00;101923.88;5018143;28;45226;-76
2021/11/24 10:08:35;;;;;;;;;22.75;18.25;;;;;8.11;100.00;101926.91;5016898;28;45520;-75
2021/11/24 10:11:01;;;;;;;;;23.75;18.75;;;;;8.16;100.00;101922.97;5017573;28;45340;-74
2021/11/24 10:13:28;;;;;;;;;19.75;14.50;;;;;8.17;100.00;101925.69;5017789;28;45478;-75
2021/11/24 10:15:57;;;;;;;;;18.00;17.50;;;;;8.15;100.00;101927.25;5017383;28;45393;-76
2021/11/24 10:18:27;;;;;;;;;22.00;20.25;;;;;8.18;100.00;101932.66;5015738;28;46196;-74
2021/11/24 10:20:53;;;;;;;;;22.25;18.50;;;;;8.21;100.00;101922.53;5017470;28;45797;-77
2021/11/24 10:23:34;;;;;;;;;18.75;16.75;;;;;8.27;100.00;101921.19;5017554;28;45441;-74
2021/11/24 10:26:17;;;;;;;;;22.75;17.25;;;;;8.29;100.00;101929.94;5017651;28;45252;-75
2021/11/24 10:28:57;;;;;;;;;22.00;15.50;;;;;8.32;100.00;101909.50;5017498;28;45417;-74
2021/11/24 10:31:36;;;;;;;;;17.75;16.25;;;;;8.30;100.00;101906.81;4999678;28;45744;-76
2021/11/24 10:34:24;;;;;;;;;25.75;20.25;;;;;8.31;100.00;101903.47;5017896;28;45375;-74
2021/11/24 10:36:52;;;;;;;;;18.50;16.25;;;;;8.30;100.00;101895.63;5018202;28;45226;-74
2021/11/24 10:39:19;;;;;;;;;22.00;16.75;;;;;8.33;100.00;101893.22;5017541;28;46066;-74
2021/11/24 10:41:45;;;;;;;;;28.50;23.75;;;;;8.34;100.00;101884.72;5016328;28;45924;-73
2021/11/24 10:44:26;;;;;;;;;21.25;17.25;;;;;8.35;100.00;101882.25;4999398;28;45494;-76
2021/11/24 10:46:55;;;;;;;;;21.75;17.25;;;;;8.38;100.00;101879.00;5017561;28;45334;-74
2021/11/24 10:49:30;;;;;;;;;23.75;18.00;;;;;8.37;100.00;101867.75;5017220;28;45374;-74
2021/11/24 10:51:56;;;;;;;;;21.25;16.50;;;;;8.47;100.00;101877.09;5017650;28;45475;-76
2021/11/24 10:54:21;;;;;;;;;24.25;22.25;;;;;8.46;100.00;101864.94;5017252;28;45442;-75
2021/11/24 10:57:16;;;;;;;;;18.25;16.75;;;;;8.54;100.00;101870.69;5017115;28;45308;-73
2021/11/24 10:59:44;;;;;;;;;26.00;20.50;;;;;8.55;100.00;101858.66;4995528;28;46001;-74
2021/11/24 11:02:22;;;;;;;;;22.25;17.50;;;;;8.59;100.00;101858.09;5016944;28;45897;-72
2021/11/24 11:05:05;;;;;;;;;22.00;20.00;;;;;8.61;100.00;101844.50;5016932;28;45236;-75
2021/11/24 11:07:34;;;;;;;;;24.00;20.25;;;;;8.64;100.00;101834.38;5017361;28;45449;-77